Terminal Aerodrome Forecast
Issued by NWS Rapid City, SD

Home | Current Version | Previous Version | Text Only | Print | Product List | Glossary On
Versions: 1 2 3 4 5 6 7 8 9 10 11 12 13 14 15 16 17 18 19 20 21 22 23
000
FTUS43 KUNR 290520
TAFRAP
TAF
KRAP 290520Z 2906/3006 05004KT P6SM SCT150
     FM291000 16003KT 1SM BR OVC003
     FM291400 13008KT P6SM SCT060
     FM292000 17007KT P6SM BKN070 OVC150
     FM300300 10006KT P6SM SCT250=

USA.gov is the U.S. government's official web portal to all federal, state and local government web resources and services.